sensor_id;sensor_type;location;lat;lon;timestamp;P1;durP1;ratioP1;P2;durP2;ratioP2
21140;SDS011;10728;53.284;10.314;2022-09-20T00:00:41;7.57;;;1.30;;
21140;SDS011;10728;53.284;10.314;2022-09-20T00:03:07;2.60;;;0.93;;
21140;SDS011;10728;53.284;10.314;2022-09-20T00:05:34;3.03;;;1.17;;
21140;SDS011;10728;53.284;10.314;2022-09-20T00:08:01;8.60;;;1.37;;
21140;SDS011;10728;53.284;10.314;2022-09-20T00:10:27;11.87;;;1.70;;
21140;SDS011;10728;53.284;10.314;2022-09-20T00:12:52;4.37;;;1.10;;
21140;SDS011;10728;53.284;10.314;2022-09-20T00:15:17;10.17;;;1.50;;
21140;SDS011;10728;53.284;10.314;2022-09-20T00:17:43;9.17;;;1.43;;
21140;SDS011;10728;53.284;10.314;2022-09-20T00:20:08;10.73;;;1.50;;
21140;SDS011;10728;53.284;10.314;2022-09-20T00:22:35;4.93;;;1.20;;
21140;SDS011;10728;53.284;10.314;2022-09-20T00:25:00;8.17;;;1.70;;
21140;SDS011;10728;53.284;10.314;2022-09-20T00:27:25;6.13;;;1.30;;
21140;SDS011;10728;53.284;10.314;2022-09-20T00:29:51;7.90;;;1.40;;
21140;SDS011;10728;53.284;10.314;2022-09-20T00:32:18;4.37;;;1.10;;
21140;SDS011;10728;53.284;10.314;2022-09-20T00:34:43;3.23;;;1.20;;
21140;SDS011;10728;53.284;10.314;2022-09-20T00:37:27;8.37;;;1.40;;
21140;SDS011;10728;53.284;10.314;2022-09-20T00:39:52;10.37;;;1.70;;
21140;SDS011;10728;53.284;10.314;2022-09-20T00:42:18;7.77;;;1.47;;
21140;SDS011;10728;53.284;10.314;2022-09-20T00:47:18;7.70;;;1.23;;
21140;SDS011;10728;53.284;10.314;2022-09-20T00:49:47;4.17;;;1.10;;
21140;SDS011;10728;53.284;10.314;2022-09-20T00:52:13;5.17;;;1.20;;
21140;SDS011;10728;53.284;10.314;2022-09-20T00:54:39;6.97;;;1.30;;
21140;SDS011;10728;53.284;10.314;2022-09-20T00:57:04;4.17;;;1.10;;
21140;SDS011;10728;53.284;10.314;2022-09-20T00:59:34;5.03;;;1.00;;
21140;SDS011;10728;53.284;10.314;2022-09-20T01:02:05;2.60;;;1.10;;
21140;SDS011;10728;53.284;10.314;2022-09-20T01:04:37;7.53;;;1.40;;
21140;SDS011;10728;53.284;10.314;2022-09-20T01:07:03;4.00;;;1.07;;
21140;SDS011;10728;53.284;10.314;2022-09-20T01:09:30;5.63;;;1.50;;
21140;SDS011;10728;53.284;10.314;2022-09-20T01:11:55;8.07;;;1.67;;
21140;SDS011;10728;53.284;10.314;2022-09-20T01:14:21;3.40;;;1.40;;
21140;SDS011;10728;53.284;10.314;2022-09-20T01:16:50;4.57;;;1.07;;
21140;SDS011;10728;53.284;10.314;2022-09-20T01:22:24;5.43;;;1.00;;
21140;SDS011;10728;53.284;10.314;2022-09-20T01:30:22;6.70;;;1.10;;
21140;SDS011;10728;53.284;10.314;2022-09-20T01:35:43;5.20;;;1.10;;
21140;SDS011;10728;53.284;10.314;2022-09-20T01:41:06;5.90;;;1.43;;
21140;SDS011;10728;53.284;10.314;2022-09-20T01:43:36;3.97;;;1.20;;
21140;SDS011;10728;53.284;10.314;2022-09-20T01:48:44;6.63;;;1.40;;
21140;SDS011;10728;53.284;10.314;2022-09-20T02:05:38;1.00;;;0.67;;
21140;SDS011;10728;53.284;10.314;2022-09-20T02:11:12;2.00;;;0.90;;
21140;SDS011;10728;53.284;10.314;2022-09-20T02:22:18;4.90;;;1.23;;
21140;SDS011;10728;53.284;10.314;2022-09-20T02:27:39;7.10;;;1.03;;
21140;SDS011;10728;53.284;10.314;2022-09-20T02:30:18;8.03;;;1.40;;
21140;SDS011;10728;53.284;10.314;2022-09-20T02:35:51;8.20;;;1.20;;
21140;SDS011;10728;53.284;10.314;2022-09-20T02:38:58;5.30;;;1.03;;
21140;SDS011;10728;53.284;10.314;2022-09-20T02:49:13;4.13;;;1.00;;
21140;SDS011;10728;53.284;10.314;2022-09-20T02:57:58;4.30;;;1.10;;
21140;SDS011;10728;53.284;10.314;2022-09-20T03:00:38;2.27;;;1.17;;
21140;SDS011;10728;53.284;10.314;2022-09-20T03:03:30;7.37;;;1.70;;
21140;SDS011;10728;53.284;10.314;2022-09-20T03:11:34;8.83;;;1.73;;
21140;SDS011;10728;53.284;10.314;2022-09-20T03:16:47;7.03;;;2.47;;
21140;SDS011;10728;53.284;10.314;2022-09-20T03:34:00;18.63;;;6.50;;
21140;SDS011;10728;53.284;10.314;2022-09-20T03:50:19;18.63;;;5.10;;
21140;SDS011;10728;53.284;10.314;2022-09-20T03:52:54;9.20;;;4.67;;
21140;SDS011;10728;53.284;10.314;2022-09-20T03:55:38;13.03;;;4.70;;
21140;SDS011;10728;53.284;10.314;2022-09-20T04:06:44;19.03;;;5.33;;
21140;SDS011;10728;53.284;10.314;2022-09-20T04:15:28;14.50;;;4.93;;
21140;SDS011;10728;53.284;10.314;2022-09-20T04:23:31;5.77;;;4.73;;
21140;SDS011;10728;53.284;10.314;2022-09-20T04:26:02;7.47;;;4.80;;
21140;SDS011;10728;53.284;10.314;2022-09-20T04:28:33;8.40;;;4.17;;
21140;SDS011;10728;53.284;10.314;2022-09-20T04:33:53;21.00;;;5.23;;
21140;SDS011;10728;53.284;10.314;2022-09-20T04:44:44;5.40;;;4.40;;
21140;SDS011;10728;53.284;10.314;2022-09-20T04:55:50;6.93;;;4.43;;
21140;SDS011;10728;53.284;10.314;2022-09-20T05:09:28;14.20;;;10.90;;
21140;SDS011;10728;53.284;10.314;2022-09-20T05:17:35;7.60;;;4.77;;
21140;SDS011;10728;53.284;10.314;2022-09-20T05:26:09;13.07;;;5.33;;
21140;SDS011;10728;53.284;10.314;2022-09-20T05:28:58;6.80;;;5.37;;
21140;SDS011;10728;53.284;10.314;2022-09-20T05:37:15;11.00;;;6.13;;
21140;SDS011;10728;53.284;10.314;2022-09-20T05:40:03;8.93;;;4.70;;
21140;SDS011;10728;53.284;10.314;2022-09-20T05:42:33;8.50;;;5.43;;
21140;SDS011;10728;53.284;10.314;2022-09-20T05:50:59;11.03;;;5.73;;
21140;SDS011;10728;53.284;10.314;2022-09-20T05:53:59;17.83;;;6.50;;
21140;SDS011;10728;53.284;10.314;2022-09-20T05:56:34;7.40;;;4.97;;
21140;SDS011;10728;53.284;10.314;2022-09-20T06:04:59;10.87;;;6.03;;
21140;SDS011;10728;53.284;10.314;2022-09-20T06:23:29;22.63;;;8.57;;
21140;SDS011;10728;53.284;10.314;2022-09-20T06:25:55;19.03;;;7.87;;
21140;SDS011;10728;53.284;10.314;2022-09-20T06:28:37;23.90;;;8.20;;
21140;SDS011;10728;53.284;10.314;2022-09-20T06:31:05;19.90;;;7.87;;
21140;SDS011;10728;53.284;10.314;2022-09-20T06:33:37;23.23;;;7.60;;
21140;SDS011;10728;53.284;10.314;2022-09-20T06:36:13;12.70;;;6.23;;
21140;SDS011;10728;53.284;10.314;2022-09-20T06:42:04;17.33;;;6.53;;
21140;SDS011;10728;53.284;10.314;2022-09-20T06:44:30;17.40;;;7.27;;
21140;SDS011;10728;53.284;10.314;2022-09-20T06:46:56;20.83;;;7.00;;
21140;SDS011;10728;53.284;10.314;2022-09-20T06:49:21;17.73;;;6.43;;
21140;SDS011;10728;53.284;10.314;2022-09-20T06:51:48;8.87;;;5.97;;
21140;SDS011;10728;53.284;10.314;2022-09-20T06:54:18;10.87;;;5.07;;
21140;SDS011;10728;53.284;10.314;2022-09-20T06:56:44;15.50;;;5.77;;
21140;SDS011;10728;53.284;10.314;2022-09-20T06:59:11;9.37;;;5.20;;
21140;SDS011;10728;53.284;10.314;2022-09-20T07:01:38;8.10;;;4.67;;
21140;SDS011;10728;53.284;10.314;2022-09-20T07:04:04;7.13;;;4.37;;
21140;SDS011;10728;53.284;10.314;2022-09-20T07:06:34;6.83;;;4.23;;
21140;SDS011;10728;53.284;10.314;2022-09-20T07:08:59;8.47;;;4.13;;
21140;SDS011;10728;53.284;10.314;2022-09-20T07:11:25;10.30;;;4.67;;
21140;SDS011;10728;53.284;10.314;2022-09-20T07:13:51;6.90;;;4.43;;
21140;SDS011;10728;53.284;10.314;2022-09-20T07:16:18;7.27;;;4.10;;
21140;SDS011;10728;53.284;10.314;2022-09-20T07:18:44;8.13;;;4.20;;
21140;SDS011;10728;53.284;10.314;2022-09-20T07:21:10;6.43;;;4.10;;
21140;SDS011;10728;53.284;10.314;2022-09-20T07:23:36;7.13;;;4.00;;
21140;SDS011;10728;53.284;10.314;2022-09-20T07:26:02;13.33;;;4.43;;
21140;SDS011;10728;53.284;10.314;2022-09-20T07:28:27;16.10;;;4.13;;
21140;SDS011;10728;53.284;10.314;2022-09-20T07:30:53;10.83;;;4.00;;
21140;SDS011;10728;53.284;10.314;2022-09-20T07:33:18;9.13;;;3.23;;
21140;SDS011;10728;53.284;10.314;2022-09-20T07:35:48;10.87;;;3.40;;
21140;SDS011;10728;53.284;10.314;2022-09-20T07:38:14;17.33;;;3.37;;
21140;SDS011;10728;53.284;10.314;2022-09-20T07:40:40;9.93;;;3.50;;
21140;SDS011;10728;53.284;10.314;2022-09-20T07:43:05;6.87;;;2.93;;
21140;SDS011;10728;53.284;10.314;2022-09-20T07:45:31;8.57;;;3.07;;
21140;SDS011;10728;53.284;10.314;2022-09-20T07:47:58;10.73;;;2.73;;
21140;SDS011;10728;53.284;10.314;2022-09-20T07:50:23;7.73;;;2.60;;
21140;SDS011;10728;53.284;10.314;2022-09-20T07:52:49;10.57;;;2.60;;
21140;SDS011;10728;53.284;10.314;2022-09-20T07:55:14;13.30;;;3.30;;
21140;SDS011;10728;53.284;10.314;2022-09-20T07:57:40;14.93;;;2.90;;
21140;SDS011;10728;53.284;10.314;2022-09-20T08:00:07;9.83;;;2.43;;
21140;SDS011;10728;53.284;10.314;2022-09-20T08:02:37;16.90;;;2.50;;
21140;SDS011;10728;53.284;10.314;2022-09-20T08:05:03;11.63;;;3.00;;
21140;SDS011;10728;53.284;10.314;2022-09-20T08:07:29;9.73;;;3.03;;
21140;SDS011;10728;53.284;10.314;2022-09-20T08:09:54;13.30;;;2.67;;
21140;SDS011;10728;53.284;10.314;2022-09-20T08:12:19;11.77;;;2.20;;
21140;SDS011;10728;53.284;10.314;2022-09-20T08:14:46;10.40;;;2.10;;
21140;SDS011;10728;53.284;10.314;2022-09-20T08:17:12;11.23;;;2.10;;
21140;SDS011;10728;53.284;10.314;2022-09-20T08:19:37;11.03;;;1.87;;
21140;SDS011;10728;53.284;10.314;2022-09-20T08:22:04;13.00;;;2.63;;
21140;SDS011;10728;53.284;10.314;2022-09-20T08:24:30;11.73;;;1.90;;
21140;SDS011;10728;53.284;10.314;2022-09-20T08:26:56;11.43;;;1.67;;
21140;SDS011;10728;53.284;10.314;2022-09-20T08:29:21;6.30;;;1.53;;
21140;SDS011;10728;53.284;10.314;2022-09-20T08:31:47;10.70;;;2.17;;
21140;SDS011;10728;53.284;10.314;2022-09-20T08:34:13;8.57;;;2.10;;
21140;SDS011;10728;53.284;10.314;2022-09-20T08:36:40;12.53;;;1.90;;
21140;SDS011;10728;53.284;10.314;2022-09-20T08:39:06;8.77;;;2.00;;
21140;SDS011;10728;53.284;10.314;2022-09-20T08:46:38;13.97;;;1.80;;
21140;SDS011;10728;53.284;10.314;2022-09-20T08:49:04;9.37;;;1.80;;
21140;SDS011;10728;53.284;10.314;2022-09-20T08:51:33;9.90;;;2.40;;
21140;SDS011;10728;53.284;10.314;2022-09-20T08:54:01;16.27;;;2.40;;
21140;SDS011;10728;53.284;10.314;2022-09-20T08:56:30;18.63;;;2.23;;
21140;SDS011;10728;53.284;10.314;2022-09-20T08:58:57;11.80;;;2.10;;
21140;SDS011;10728;53.284;10.314;2022-09-20T09:01:25;10.63;;;1.83;;
21140;SDS011;10728;53.284;10.314;2022-09-20T09:03:52;11.37;;;1.80;;
21140;SDS011;10728;53.284;10.314;2022-09-20T09:06:23;9.07;;;1.83;;
21140;SDS011;10728;53.284;10.314;2022-09-20T09:08:48;11.30;;;1.60;;
21140;SDS011;10728;53.284;10.314;2022-09-20T09:11:17;12.77;;;1.77;;
21140;SDS011;10728;53.284;10.314;2022-09-20T09:16:30;14.33;;;2.00;;
21140;SDS011;10728;53.284;10.314;2022-09-20T09:18:57;12.80;;;2.10;;
21140;SDS011;10728;53.284;10.314;2022-09-20T09:24:05;10.07;;;1.80;;
21140;SDS011;10728;53.284;10.314;2022-09-20T09:26:37;11.47;;;1.80;;
21140;SDS011;10728;53.284;10.314;2022-09-20T09:31:51;14.07;;;1.93;;
21140;SDS011;10728;53.284;10.314;2022-09-20T09:36:46;10.17;;;1.60;;
21140;SDS011;10728;53.284;10.314;2022-09-20T09:39:13;14.23;;;1.97;;
21140;SDS011;10728;53.284;10.314;2022-09-20T09:41:40;13.20;;;1.97;;
21140;SDS011;10728;53.284;10.314;2022-09-20T09:46:52;10.33;;;1.80;;
21140;SDS011;10728;53.284;10.314;2022-09-20T09:49:22;10.40;;;1.70;;
21140;SDS011;10728;53.284;10.314;2022-09-20T09:54:26;8.30;;;1.53;;
21140;SDS011;10728;53.284;10.314;2022-09-20T10:04:37;16.20;;;1.80;;
21140;SDS011;10728;53.284;10.314;2022-09-20T10:10:00;7.20;;;1.47;;
21140;SDS011;10728;53.284;10.314;2022-09-20T10:18:20;7.50;;;1.43;;
21140;SDS011;10728;53.284;10.314;2022-09-20T10:20:56;8.23;;;1.70;;
21140;SDS011;10728;53.284;10.314;2022-09-20T10:37:32;11.03;;;1.90;;
21140;SDS011;10728;53.284;10.314;2022-09-20T10:42:41;7.50;;;1.37;;
21140;SDS011;10728;53.284;10.314;2022-09-20T10:45:32;8.03;;;1.77;;
21140;SDS011;10728;53.284;10.314;2022-09-20T10:48:11;8.37;;;1.80;;
21140;SDS011;10728;53.284;10.314;2022-09-20T10:50:50;12.73;;;1.67;;
21140;SDS011;10728;53.284;10.314;2022-09-20T10:53:21;7.77;;;1.50;;
21140;SDS011;10728;53.284;10.314;2022-09-20T11:07:17;7.60;;;1.70;;
21140;SDS011;10728;53.284;10.314;2022-09-20T11:09:48;9.17;;;1.67;;
21140;SDS011;10728;53.284;10.314;2022-09-20T11:12:21;7.13;;;1.90;;
21140;SDS011;10728;53.284;10.314;2022-09-20T11:14:54;11.33;;;1.80;;
21140;SDS011;10728;53.284;10.314;2022-09-20T11:17:25;10.17;;;1.70;;
21140;SDS011;10728;53.284;10.314;2022-09-20T11:24:57;5.13;;;1.33;;
21140;SDS011;10728;53.284;10.314;2022-09-20T11:28:08;4.00;;;1.33;;
21140;SDS011;10728;53.284;10.314;2022-09-20T11:30:19;6.53;;;1.40;;
21140;SDS011;10728;53.284;10.314;2022-09-20T11:32:48;5.73;;;1.30;;
21140;SDS011;10728;53.284;10.314;2022-09-20T11:37:57;9.50;;;1.90;;
21140;SDS011;10728;53.284;10.314;2022-09-20T11:40:40;10.83;;;1.70;;
21140;SDS011;10728;53.284;10.314;2022-09-20T11:43:12;6.17;;;1.40;;
21140;SDS011;10728;53.284;10.314;2022-09-20T11:45:39;5.87;;;1.80;;
21140;SDS011;10728;53.284;10.314;2022-09-20T11:48:18;5.93;;;1.50;;
21140;SDS011;10728;53.284;10.314;2022-09-20T11:51:08;4.97;;;1.50;;
21140;SDS011;10728;53.284;10.314;2022-09-20T11:53:48;10.97;;;2.10;;
21140;SDS011;10728;53.284;10.314;2022-09-20T11:56:20;7.23;;;1.60;;
21140;SDS011;10728;53.284;10.314;2022-09-20T11:58:49;8.70;;;1.53;;
21140;SDS011;10728;53.284;10.314;2022-09-20T12:01:20;6.57;;;1.42;;
21140;SDS011;10728;53.284;10.314;2022-09-20T12:03:51;9.83;;;1.50;;
21140;SDS011;10728;53.284;10.314;2022-09-20T12:08:52;7.70;;;1.20;;
21140;SDS011;10728;53.284;10.314;2022-09-20T12:11:31;7.30;;;1.47;;
21140;SDS011;10728;53.284;10.314;2022-09-20T12:14:05;8.63;;;1.57;;
21140;SDS011;10728;53.284;10.314;2022-09-20T12:16:40;8.87;;;1.57;;
21140;SDS011;10728;53.284;10.314;2022-09-20T12:19:10;3.70;;;1.03;;
21140;SDS011;10728;53.284;10.314;2022-09-20T12:24:39;10.05;;;1.73;;
21140;SDS011;10728;53.284;10.314;2022-09-20T12:32:45;5.33;;;1.30;;
21140;SDS011;10728;53.284;10.314;2022-09-20T12:40:59;9.13;;;1.70;;
21140;SDS011;10728;53.284;10.314;2022-09-20T12:43:25;6.13;;;1.43;;
21140;SDS011;10728;53.284;10.314;2022-09-20T12:45:53;4.67;;;1.27;;
21140;SDS011;10728;53.284;10.314;2022-09-20T12:48:19;6.00;;;1.23;;
21140;SDS011;10728;53.284;10.314;2022-09-20T12:50:59;6.90;;;1.40;;
21140;SDS011;10728;53.284;10.314;2022-09-20T12:54:05;7.23;;;1.30;;
21140;SDS011;10728;53.284;10.314;2022-09-20T12:56:35;5.10;;;1.27;;
21140;SDS011;10728;53.284;10.314;2022-09-20T12:59:03;9.47;;;1.40;;
21140;SDS011;10728;53.284;10.314;2022-09-20T13:01:31;8.47;;;1.53;;
21140;SDS011;10728;53.284;10.314;2022-09-20T13:09:51;7.33;;;1.43;;
21140;SDS011;10728;53.284;10.314;2022-09-20T13:12:17;9.13;;;1.33;;
21140;SDS011;10728;53.284;10.314;2022-09-20T13:14:43;7.77;;;1.63;;
21140;SDS011;10728;53.284;10.314;2022-09-20T13:17:21;4.33;;;1.23;;
21140;SDS011;10728;53.284;10.314;2022-09-20T13:19:51;5.37;;;1.30;;
21140;SDS011;10728;53.284;10.314;2022-09-20T13:24:58;9.75;;;1.77;;
21140;SDS011;10728;53.284;10.314;2022-09-20T13:27:29;9.68;;;1.35;;
21140;SDS011;10728;53.284;10.314;2022-09-20T13:30:10;5.18;;;0.95;;
21140;SDS011;10728;53.284;10.314;2022-09-20T13:32:41;4.00;;;1.27;;
21140;SDS011;10728;53.284;10.314;2022-09-20T13:37:32;5.32;;;1.48;;
21140;SDS011;10728;53.284;10.314;2022-09-20T13:39:58;5.20;;;1.48;;
21140;SDS011;10728;53.284;10.314;2022-09-20T13:42:24;4.35;;;1.40;;
21140;SDS011;10728;53.284;10.314;2022-09-20T13:44:53;5.45;;;1.40;;
21140;SDS011;10728;53.284;10.314;2022-09-20T13:47:22;5.70;;;1.40;;
21140;SDS011;10728;53.284;10.314;2022-09-20T13:50:06;7.15;;;1.60;;
21140;SDS011;10728;53.284;10.314;2022-09-20T13:52:44;7.15;;;1.45;;
21140;SDS011;10728;53.284;10.314;2022-09-20T13:55:45;9.25;;;1.42;;
21140;SDS011;10728;53.284;10.314;2022-09-20T14:00:34;6.18;;;1.75;;
21140;SDS011;10728;53.284;10.314;2022-09-20T14:03:01;9.77;;;1.73;;
21140;SDS011;10728;53.284;10.314;2022-09-20T14:05:28;4.90;;;1.50;;
21140;SDS011;10728;53.284;10.314;2022-09-20T14:07:54;7.17;;;1.90;;
21140;SDS011;10728;53.284;10.314;2022-09-20T14:10:31;9.87;;;1.63;;
21140;SDS011;10728;53.284;10.314;2022-09-20T14:12:59;7.10;;;1.80;;
21140;SDS011;10728;53.284;10.314;2022-09-20T14:15:27;6.22;;;1.30;;
21140;SDS011;10728;53.284;10.314;2022-09-20T14:17:57;4.10;;;1.40;;
21140;SDS011;10728;53.284;10.314;2022-09-20T14:20:23;6.90;;;1.50;;
21140;SDS011;10728;53.284;10.314;2022-09-20T14:22:50;7.43;;;1.27;;
21140;SDS011;10728;53.284;10.314;2022-09-20T14:25:21;6.07;;;2.28;;
21140;SDS011;10728;53.284;10.314;2022-09-20T14:28:03;8.80;;;2.40;;
21140;SDS011;10728;53.284;10.314;2022-09-20T14:30:31;8.48;;;1.80;;
21140;SDS011;10728;53.284;10.314;2022-09-20T14:32:59;3.67;;;1.30;;
21140;SDS011;10728;53.284;10.314;2022-09-20T14:35:24;8.68;;;1.73;;
21140;SDS011;10728;53.284;10.314;2022-09-20T14:37:52;7.38;;;1.13;;
21140;SDS011;10728;53.284;10.314;2022-09-20T14:42:46;6.63;;;1.50;;
21140;SDS011;10728;53.284;10.314;2022-09-20T14:45:34;14.23;;;5.60;;
21140;SDS011;10728;53.284;10.314;2022-09-20T14:48:43;7.15;;;2.63;;
21140;SDS011;10728;53.284;10.314;2022-09-20T14:53:43;6.85;;;2.60;;
21140;SDS011;10728;53.284;10.314;2022-09-20T14:56:11;9.67;;;2.20;;
21140;SDS011;10728;53.284;10.314;2022-09-20T15:01:54;6.78;;;2.78;;
21140;SDS011;10728;53.284;10.314;2022-09-20T15:04:23;8.83;;;1.90;;
21140;SDS011;10728;53.284;10.314;2022-09-20T15:06:51;5.95;;;1.20;;
21140;SDS011;10728;53.284;10.314;2022-09-20T15:09:17;5.60;;;1.40;;
21140;SDS011;10728;53.284;10.314;2022-09-20T15:11:43;7.17;;;1.60;;
21140;SDS011;10728;53.284;10.314;2022-09-20T15:14:09;2.90;;;1.15;;
21140;SDS011;10728;53.284;10.314;2022-09-20T15:16:34;7.68;;;1.40;;
21140;SDS011;10728;53.284;10.314;2022-09-20T15:19:00;8.00;;;1.50;;
21140;SDS011;10728;53.284;10.314;2022-09-20T15:21:25;4.78;;;1.40;;
21140;SDS011;10728;53.284;10.314;2022-09-20T15:23:51;5.93;;;1.33;;
21140;SDS011;10728;53.284;10.314;2022-09-20T15:26:17;11.23;;;0.93;;
21140;SDS011;10728;53.284;10.314;2022-09-20T15:28:44;5.07;;;1.03;;
21140;SDS011;10728;53.284;10.314;2022-09-20T15:31:09;4.70;;;1.10;;
21140;SDS011;10728;53.284;10.314;2022-09-20T15:33:35;4.50;;;1.07;;
21140;SDS011;10728;53.284;10.314;2022-09-20T15:36:00;5.83;;;1.10;;
21140;SDS011;10728;53.284;10.314;2022-09-20T15:38:26;6.57;;;1.48;;
21140;SDS011;10728;53.284;10.314;2022-09-20T15:40:52;6.60;;;1.27;;
21140;SDS011;10728;53.284;10.314;2022-09-20T15:43:19;9.07;;;1.40;;
21140;SDS011;10728;53.284;10.314;2022-09-20T15:45:51;6.43;;;1.07;;
21140;SDS011;10728;53.284;10.314;2022-09-20T15:48:22;5.03;;;0.97;;
21140;SDS011;10728;53.284;10.314;2022-09-20T15:51:03;4.95;;;1.08;;
21140;SDS011;10728;53.284;10.314;2022-09-20T15:56:22;5.23;;;1.30;;
21140;SDS011;10728;53.284;10.314;2022-09-20T15:58:56;7.13;;;1.43;;
21140;SDS011;10728;53.284;10.314;2022-09-20T16:01:33;4.40;;;1.07;;
21140;SDS011;10728;53.284;10.314;2022-09-20T16:04:11;2.33;;;0.80;;
21140;SDS011;10728;53.284;10.314;2022-09-20T16:06:38;5.97;;;1.10;;
21140;SDS011;10728;53.284;10.314;2022-09-20T16:09:05;3.30;;;1.00;;
21140;SDS011;10728;53.284;10.314;2022-09-20T16:11:31;5.40;;;1.10;;
21140;SDS011;10728;53.284;10.314;2022-09-20T16:13:57;6.07;;;1.10;;
21140;SDS011;10728;53.284;10.314;2022-09-20T16:16:23;3.80;;;0.80;;
21140;SDS011;10728;53.284;10.314;2022-09-20T16:18:49;3.77;;;0.73;;
21140;SDS011;10728;53.284;10.314;2022-09-20T16:21:33;4.13;;;0.83;;
21140;SDS011;10728;53.284;10.314;2022-09-20T16:23:59;2.23;;;0.80;;
21140;SDS011;10728;53.284;10.314;2022-09-20T16:26:25;3.33;;;1.03;;
21140;SDS011;10728;53.284;10.314;2022-09-20T16:28:52;2.83;;;0.93;;
21140;SDS011;10728;53.284;10.314;2022-09-20T16:37:03;8.80;;;1.20;;
21140;SDS011;10728;53.284;10.314;2022-09-20T16:39:30;2.07;;;0.90;;
21140;SDS011;10728;53.284;10.314;2022-09-20T16:42:00;3.27;;;1.00;;
21140;SDS011;10728;53.284;10.314;2022-09-20T16:44:30;1.33;;;0.60;;
21140;SDS011;10728;53.284;10.314;2022-09-20T16:46:59;1.53;;;0.90;;
21140;SDS011;10728;53.284;10.314;2022-09-20T16:49:25;1.93;;;0.67;;
21140;SDS011;10728;53.284;10.314;2022-09-20T16:51:52;4.80;;;1.20;;
21140;SDS011;10728;53.284;10.314;2022-09-20T16:54:17;3.87;;;1.30;;
21140;SDS011;10728;53.284;10.314;2022-09-20T16:56:47;0.97;;;0.57;;
21140;SDS011;10728;53.284;10.314;2022-09-20T16:59:14;2.50;;;0.87;;
21140;SDS011;10728;53.284;10.314;2022-09-20T17:01:41;2.60;;;1.07;;
21140;SDS011;10728;53.284;10.314;2022-09-20T17:04:07;3.60;;;0.80;;
21140;SDS011;10728;53.284;10.314;2022-09-20T17:06:34;4.20;;;0.73;;
21140;SDS011;10728;53.284;10.314;2022-09-20T17:09:01;2.67;;;1.07;;
21140;SDS011;10728;53.284;10.314;2022-09-20T17:11:28;5.67;;;1.10;;
21140;SDS011;10728;53.284;10.314;2022-09-20T17:13:55;5.60;;;1.27;;
21140;SDS011;10728;53.284;10.314;2022-09-20T17:16:22;2.90;;;1.10;;
21140;SDS011;10728;53.284;10.314;2022-09-20T17:18:53;4.03;;;1.50;;
21140;SDS011;10728;53.284;10.314;2022-09-20T17:21:23;4.60;;;1.73;;
21140;SDS011;10728;53.284;10.314;2022-09-20T17:23:50;3.13;;;1.30;;
21140;SDS011;10728;53.284;10.314;2022-09-20T17:26:29;3.10;;;0.93;;
21140;SDS011;10728;53.284;10.314;2022-09-20T17:28:57;5.37;;;1.30;;
21140;SDS011;10728;53.284;10.314;2022-09-20T17:31:24;8.17;;;1.30;;
21140;SDS011;10728;53.284;10.314;2022-09-20T17:33:56;3.37;;;1.10;;
21140;SDS011;10728;53.284;10.314;2022-09-20T17:36:24;2.63;;;1.00;;
21140;SDS011;10728;53.284;10.314;2022-09-20T17:38:52;2.90;;;1.27;;
21140;SDS011;10728;53.284;10.314;2022-09-20T17:41:19;2.60;;;1.30;;
21140;SDS011;10728;53.284;10.314;2022-09-20T17:43:45;2.87;;;1.00;;
21140;SDS011;10728;53.284;10.314;2022-09-20T17:46:15;3.17;;;1.07;;
21140;SDS011;10728;53.284;10.314;2022-09-20T17:48:46;4.67;;;1.27;;
21140;SDS011;10728;53.284;10.314;2022-09-20T17:51:18;4.00;;;1.17;;
21140;SDS011;10728;53.284;10.314;2022-09-20T17:53:44;4.40;;;1.40;;
21140;SDS011;10728;53.284;10.314;2022-09-20T17:56:10;3.83;;;1.50;;
21140;SDS011;10728;53.284;10.314;2022-09-20T17:58:37;3.67;;;1.60;;
21140;SDS011;10728;53.284;10.314;2022-09-20T18:01:10;1.90;;;1.27;;
21140;SDS011;10728;53.284;10.314;2022-09-20T18:03:39;4.50;;;1.27;;
21140;SDS011;10728;53.284;10.314;2022-09-20T18:06:09;3.57;;;1.30;;
21140;SDS011;10728;53.284;10.314;2022-09-20T18:08:46;3.33;;;1.10;;
21140;SDS011;10728;53.284;10.314;2022-09-20T18:11:12;3.43;;;1.43;;
21140;SDS011;10728;53.284;10.314;2022-09-20T18:13:37;2.97;;;1.30;;
21140;SDS011;10728;53.284;10.314;2022-09-20T18:16:06;5.60;;;1.03;;
21140;SDS011;10728;53.284;10.314;2022-09-20T18:18:32;3.50;;;1.33;;
21140;SDS011;10728;53.284;10.314;2022-09-20T18:20:57;5.50;;;1.20;;
21140;SDS011;10728;53.284;10.314;2022-09-20T18:23:24;3.40;;;0.93;;
21140;SDS011;10728;53.284;10.314;2022-09-20T18:25:50;5.57;;;1.10;;
21140;SDS011;10728;53.284;10.314;2022-09-20T18:31:21;3.90;;;0.90;;
21140;SDS011;10728;53.284;10.314;2022-09-20T18:33:51;2.93;;;0.90;;
21140;SDS011;10728;53.284;10.314;2022-09-20T18:36:17;3.27;;;1.07;;
21140;SDS011;10728;53.284;10.314;2022-09-20T18:38:43;7.10;;;1.17;;
21140;SDS011;10728;53.284;10.314;2022-09-20T18:41:10;5.50;;;1.40;;
21140;SDS011;10728;53.284;10.314;2022-09-20T18:43:38;3.47;;;1.13;;
21140;SDS011;10728;53.284;10.314;2022-09-20T18:46:07;2.40;;;0.80;;
21140;SDS011;10728;53.284;10.314;2022-09-20T18:48:35;2.20;;;0.63;;
21140;SDS011;10728;53.284;10.314;2022-09-20T18:51:04;1.73;;;0.77;;
21140;SDS011;10728;53.284;10.314;2022-09-20T18:53:31;3.53;;;0.90;;
21140;SDS011;10728;53.284;10.314;2022-09-20T18:56:06;5.73;;;0.83;;
21140;SDS011;10728;53.284;10.314;2022-09-20T18:58:32;5.70;;;1.00;;
21140;SDS011;10728;53.284;10.314;2022-09-20T19:06:53;4.80;;;2.00;;
21140;SDS011;10728;53.284;10.314;2022-09-20T19:09:35;9.93;;;3.40;;
21140;SDS011;10728;53.284;10.314;2022-09-20T19:15:10;5.57;;;1.80;;
21140;SDS011;10728;53.284;10.314;2022-09-20T19:26:33;2.87;;;1.20;;
21140;SDS011;10728;53.284;10.314;2022-09-20T19:29:02;6.93;;;1.50;;
21140;SDS011;10728;53.284;10.314;2022-09-20T19:31:29;4.00;;;1.20;;
21140;SDS011;10728;53.284;10.314;2022-09-20T19:33:57;4.10;;;1.20;;
21140;SDS011;10728;53.284;10.314;2022-09-20T19:36:24;5.20;;;1.27;;
21140;SDS011;10728;53.284;10.314;2022-09-20T19:45:21;3.33;;;1.03;;
21140;SDS011;10728;53.284;10.314;2022-09-20T19:50:56;6.83;;;1.20;;
21140;SDS011;10728;53.284;10.314;2022-09-20T19:53:27;4.27;;;1.13;;
21140;SDS011;10728;53.284;10.314;2022-09-20T19:55:54;2.43;;;1.00;;
21140;SDS011;10728;53.284;10.314;2022-09-20T19:58:21;3.73;;;1.07;;
21140;SDS011;10728;53.284;10.314;2022-09-20T20:00:47;4.00;;;0.80;;
21140;SDS011;10728;53.284;10.314;2022-09-20T20:03:13;2.33;;;0.90;;
21140;SDS011;10728;53.284;10.314;2022-09-20T20:05:55;1.57;;;0.67;;
21140;SDS011;10728;53.284;10.314;2022-09-20T20:14:03;1.23;;;0.80;;
21140;SDS011;10728;53.284;10.314;2022-09-20T20:25:40;1.30;;;0.70;;
21140;SDS011;10728;53.284;10.314;2022-09-20T20:28:12;3.93;;;1.30;;
21140;SDS011;10728;53.284;10.314;2022-09-20T20:30:37;5.53;;;1.20;;
21140;SDS011;10728;53.284;10.314;2022-09-20T20:33:03;4.00;;;1.30;;
21140;SDS011;10728;53.284;10.314;2022-09-20T20:35:30;6.53;;;1.33;;
21140;SDS011;10728;53.284;10.314;2022-09-20T20:37:55;3.37;;;1.37;;
21140;SDS011;10728;53.284;10.314;2022-09-20T20:40:21;1.77;;;1.23;;
21140;SDS011;10728;53.284;10.314;2022-09-20T20:42:46;4.03;;;1.40;;
21140;SDS011;10728;53.284;10.314;2022-09-20T20:45:12;3.43;;;1.47;;
21140;SDS011;10728;53.284;10.314;2022-09-20T20:47:38;4.87;;;1.70;;
21140;SDS011;10728;53.284;10.314;2022-09-20T20:50:06;6.27;;;1.70;;
21140;SDS011;10728;53.284;10.314;2022-09-20T20:52:35;3.50;;;1.70;;